sensor_id;sensor_type;location;lat;lon;timestamp;pressure;altitude;pressure_sealevel;temperature;humidity
75891;BME280;64571;47.512;19.054;2023-07-31T00:00:11;100118.16;;;20.91;79.57
75891;BME280;64571;47.512;19.054;2023-07-31T00:03:14;100110.97;;;20.94;79.56
75891;BME280;64571;47.512;19.054;2023-07-31T00:06:16;100102.09;;;20.95;79.16
75891;BME280;64571;47.512;19.054;2023-07-31T00:09:19;100111.47;;;20.99;78.84
75891;BME280;64571;47.512;19.054;2023-07-31T00:12:22;100106.56;;;20.96;78.62
75891;BME280;64571;47.512;19.054;2023-07-31T00:15:24;100097.66;;;20.94;78.31
75891;BME280;64571;47.512;19.054;2023-07-31T00:18:27;100109.94;;;21.06;77.52
75891;BME280;64571;47.512;19.054;2023-07-31T00:21:29;100093.81;;;21.06;77.34
75891;BME280;64571;47.512;19.054;2023-07-31T00:24:32;100096.56;;;21.03;77.20
75891;BME280;64571;47.512;19.054;2023-07-31T00:27:35;100099.38;;;21.03;77.00
75891;BME280;64571;47.512;19.054;2023-07-31T00:30:37;100096.56;;;21.03;76.77
75891;BME280;64571;47.512;19.054;2023-07-31T00:33:40;100107.56;;;21.08;76.67
75891;BME280;64571;47.512;19.054;2023-07-31T00:36:42;100102.66;;;21.05;76.45
75891;BME280;64571;47.512;19.054;2023-07-31T00:39:45;100117.38;;;21.14;76.40
75891;BME280;64571;47.512;19.054;2023-07-31T00:42:47;100119.31;;;21.10;76.29
75891;BME280;64571;47.512;19.054;2023-07-31T00:45:50;100112.78;;;21.06;76.55
75891;BME280;64571;47.512;19.054;2023-07-31T00:48:53;100110.69;;;21.03;76.54
75891;BME280;64571;47.512;19.054;2023-07-31T00:51:55;100117.94;;;21.00;76.45
75891;BME280;64571;47.512;19.054;2023-07-31T00:55:00;100122.84;;;21.03;76.33
75891;BME280;64571;47.512;19.054;2023-07-31T00:58:05;100118.16;;;20.91;76.58
75891;BME280;64571;47.512;19.054;2023-07-31T01:01:07;100120.09;;;20.87;76.86
75891;BME280;64571;47.512;19.054;2023-07-31T01:04:11;100123.31;;;20.86;76.88
75891;BME280;64571;47.512;19.054;2023-07-31T01:07:20;100127.31;;;20.85;77.04
75891;BME280;64571;47.512;19.054;2023-07-31T01:10:27;100130.53;;;20.83;77.28
75891;BME280;64571;47.512;19.054;2023-07-31T01:13:33;100127.56;;;20.76;77.51
75891;BME280;64571;47.512;19.054;2023-07-31T01:16:36;100127.84;;;20.71;77.81
75891;BME280;64571;47.512;19.054;2023-07-31T01:19:40;100121.19;;;20.60;78.09
75891;BME280;64571;47.512;19.054;2023-07-31T01:26:28;100137.25;;;20.56;78.65
75891;BME280;64571;47.512;19.054;2023-07-31T01:30:09;100133.72;;;20.43;78.94
75891;BME280;64571;47.512;19.054;2023-07-31T01:33:17;100140.94;;;20.40;79.43
75891;BME280;64571;47.512;19.054;2023-07-31T01:36:20;100152.16;;;20.37;79.96
75891;BME280;64571;47.512;19.054;2023-07-31T01:39:23;100150.44;;;20.32;80.28
75891;BME280;64571;47.512;19.054;2023-07-31T01:42:25;100138.53;;;20.23;80.62
75891;BME280;64571;47.512;19.054;2023-07-31T01:45:28;100147.00;;;20.23;80.93
75891;BME280;64571;47.512;19.054;2023-07-31T01:48:30;100144.19;;;20.23;80.93
75891;BME280;64571;47.512;19.054;2023-07-31T01:51:37;100140.56;;;20.22;80.78
75891;BME280;64571;47.512;19.054;2023-07-31T01:54:42;100135.63;;;20.19;81.00
75891;BME280;64571;47.512;19.054;2023-07-31T01:57:44;100138.91;;;20.21;80.04
75891;BME280;64571;47.512;19.054;2023-07-31T02:00:47;100126.97;;;20.28;79.22
75891;BME280;64571;47.512;19.054;2023-07-31T02:03:50;100116.19;;;20.34;78.56
75891;BME280;64571;47.512;19.054;2023-07-31T02:06:53;100107.63;;;20.30;77.86
75891;BME280;64571;47.512;19.054;2023-07-31T02:09:55;100124.72;;;20.37;77.70
75891;BME280;64571;47.512;19.054;2023-07-31T02:12:58;100113.16;;;20.23;78.08
75891;BME280;64571;47.512;19.054;2023-07-31T02:16:00;100113.78;;;20.16;78.77
75891;BME280;64571;47.512;19.054;2023-07-31T02:19:03;100121.81;;;20.14;78.96
75891;BME280;64571;47.512;19.054;2023-07-31T02:22:06;100126.19;;;20.12;79.17
75891;BME280;64571;47.512;19.054;2023-07-31T02:25:08;100124.84;;;20.06;79.37
75891;BME280;64571;47.512;19.054;2023-07-31T02:28:11;100136.13;;;20.06;79.34
75891;BME280;64571;47.512;19.054;2023-07-31T02:31:14;100124.25;;;19.96;79.57
75891;BME280;64571;47.512;19.054;2023-07-31T02:34:16;100128.25;;;19.95;79.75
75891;BME280;64571;47.512;19.054;2023-07-31T02:37:19;100138.34;;;19.96;79.59
75891;BME280;64571;47.512;19.054;2023-07-31T02:40:21;100137.53;;;19.96;79.45
75891;BME280;64571;47.512;19.054;2023-07-31T02:43:24;100129.41;;;19.94;78.47
75891;BME280;64571;47.512;19.054;2023-07-31T02:46:27;100131.97;;;20.00;78.44
75891;BME280;64571;47.512;19.054;2023-07-31T02:49:29;100131.72;;;19.89;78.58
75891;BME280;64571;47.512;19.054;2023-07-31T02:52:32;100129.38;;;19.91;78.77
75891;BME280;64571;47.512;19.054;2023-07-31T02:55:34;100152.00;;;19.94;78.88
75891;BME280;64571;47.512;19.054;2023-07-31T02:58:37;100150.94;;;19.83;78.77
75891;BME280;64571;47.512;19.054;2023-07-31T03:01:39;100150.75;;;19.76;78.89
75891;BME280;64571;47.512;19.054;2023-07-31T03:04:42;100150.03;;;19.79;78.61
75891;BME280;64571;47.512;19.054;2023-07-31T03:07:45;100162.50;;;19.78;79.04
75891;BME280;64571;47.512;19.054;2023-07-31T03:10:47;100165.22;;;19.75;79.04
75891;BME280;64571;47.512;19.054;2023-07-31T03:13:50;100158.97;;;19.65;79.34
75891;BME280;64571;47.512;19.054;2023-07-31T03:16:53;100154.16;;;19.66;79.11
75891;BME280;64571;47.512;19.054;2023-07-31T03:19:56;100167.16;;;19.70;79.24
75891;BME280;64571;47.512;19.054;2023-07-31T03:22:58;100162.16;;;19.64;79.24
75891;BME280;64571;47.512;19.054;2023-07-31T03:26:03;100175.69;;;19.74;79.31
75891;BME280;64571;47.512;19.054;2023-07-31T03:29:05;100176.50;;;19.75;79.08
75891;BME280;64571;47.512;19.054;2023-07-31T03:32:08;100174.34;;;19.68;78.93
75891;BME280;64571;47.512;19.054;2023-07-31T03:35:11;100183.63;;;19.68;79.07
75891;BME280;64571;47.512;19.054;2023-07-31T03:38:13;100180.97;;;19.76;79.01
75891;BME280;64571;47.512;19.054;2023-07-31T03:41:16;100173.69;;;19.75;78.92
75891;BME280;64571;47.512;19.054;2023-07-31T03:44:19;100179.87;;;19.80;78.67
75891;BME280;64571;47.512;19.054;2023-07-31T03:47:22;100174.22;;;19.80;78.68
75891;BME280;64571;47.512;19.054;2023-07-31T03:50:24;100185.16;;;19.82;78.71
75891;BME280;64571;47.512;19.054;2023-07-31T03:53:27;100178.81;;;19.69;78.48
75891;BME280;64571;47.512;19.054;2023-07-31T03:56:30;100182.06;;;19.71;78.46
75891;BME280;64571;47.512;19.054;2023-07-31T03:59:36;100173.34;;;19.60;78.45
75891;BME280;64571;47.512;19.054;2023-07-31T04:02:40;100175.78;;;19.62;78.46
75891;BME280;64571;47.512;19.054;2023-07-31T04:05:44;100177.91;;;19.65;78.04
75891;BME280;64571;47.512;19.054;2023-07-31T04:08:46;100182.06;;;19.71;77.87
75891;BME280;64571;47.512;19.054;2023-07-31T04:11:49;100185.25;;;19.69;77.75
75891;BME280;64571;47.512;19.054;2023-07-31T04:14:51;100180.34;;;19.66;77.75
75891;BME280;64571;47.512;19.054;2023-07-31T04:17:54;100182.53;;;19.73;77.52
75891;BME280;64571;47.512;19.054;2023-07-31T04:20:57;100186.69;;;19.79;77.20
75891;BME280;64571;47.512;19.054;2023-07-31T04:24:00;100183.78;;;19.91;76.86
75891;BME280;64571;47.512;19.054;2023-07-31T04:27:03;100186.59;;;19.91;76.81
75891;BME280;64571;47.512;19.054;2023-07-31T04:30:06;100188.31;;;19.96;76.68
75891;BME280;64571;47.512;19.054;2023-07-31T04:33:09;100184.22;;;19.93;76.34
75891;BME280;64571;47.512;19.054;2023-07-31T04:36:12;100175.75;;;19.93;76.20
75891;BME280;64571;47.512;19.054;2023-07-31T04:39:14;100190.75;;;19.97;75.94
75891;BME280;64571;47.512;19.054;2023-07-31T04:42:17;100190.53;;;19.87;75.69
75891;BME280;64571;47.512;19.054;2023-07-31T04:45:19;100175.31;;;19.91;74.83
75891;BME280;64571;47.512;19.054;2023-07-31T04:48:22;100189.78;;;19.90;74.37
75891;BME280;64571;47.512;19.054;2023-07-31T04:51:24;100189.13;;;19.96;74.16
75891;BME280;64571;47.512;19.054;2023-07-31T04:54:27;100187.66;;;20.03;73.29
75891;BME280;64571;47.512;19.054;2023-07-31T04:57:30;100190.94;;;20.05;72.52
75891;BME280;64571;47.512;19.054;2023-07-31T05:00:33;100192.56;;;20.06;72.43
75891;BME280;64571;47.512;19.054;2023-07-31T05:03:35;100191.66;;;20.02;71.46
75891;BME280;64571;47.512;19.054;2023-07-31T05:06:38;100180.81;;;20.04;70.73
75891;BME280;64571;47.512;19.054;2023-07-31T05:09:40;100187.94;;;19.97;70.87
75891;BME280;64571;47.512;19.054;2023-07-31T05:12:43;100188.41;;;20.00;70.44
75891;BME280;64571;47.512;19.054;2023-07-31T05:15:46;100203.88;;;20.06;68.51
75891;BME280;64571;47.512;19.054;2023-07-31T05:18:48;100204.47;;;20.15;67.84
75891;BME280;64571;47.512;19.054;2023-07-31T05:21:51;100196.91;;;20.19;66.78
75891;BME280;64571;47.512;19.054;2023-07-31T05:24:53;100198.09;;;20.18;66.10
75891;BME280;64571;47.512;19.054;2023-07-31T05:27:56;100213.13;;;20.22;64.36
75891;BME280;64571;47.512;19.054;2023-07-31T05:31:02;100213.13;;;20.22;64.39
75891;BME280;64571;47.512;19.054;2023-07-31T05:34:05;100209.25;;;20.30;64.06
75891;BME280;64571;47.512;19.054;2023-07-31T05:37:10;100207.31;;;20.34;63.60
75891;BME280;64571;47.512;19.054;2023-07-31T05:40:14;100197.31;;;20.37;62.99
75891;BME280;64571;47.512;19.054;2023-07-31T05:43:17;100190.47;;;20.38;62.52
75891;BME280;64571;47.512;19.054;2023-07-31T05:46:19;100203.09;;;20.44;62.39
75891;BME280;64571;47.512;19.054;2023-07-31T05:49:22;100194.56;;;20.40;61.81
75891;BME280;64571;47.512;19.054;2023-07-31T05:52:25;100201.16;;;20.64;61.51
75891;BME280;64571;47.512;19.054;2023-07-31T05:55:27;100203.59;;;20.65;60.69
75891;BME280;64571;47.512;19.054;2023-07-31T05:58:30;100220.84;;;20.80;60.19
75891;BME280;64571;47.512;19.054;2023-07-31T06:01:32;100225.03;;;20.86;60.28
75891;BME280;64571;47.512;19.054;2023-07-31T06:04:35;100220.19;;;20.86;60.38
75891;BME280;64571;47.512;19.054;2023-07-31T06:07:38;100220.00;;;21.37;58.93
75891;BME280;64571;47.512;19.054;2023-07-31T06:10:40;100218.34;;;21.82;57.54
75891;BME280;64571;47.512;19.054;2023-07-31T06:13:43;100219.94;;;22.06;56.17
75891;BME280;64571;47.512;19.054;2023-07-31T06:16:47;100230.81;;;21.78;56.83
75891;BME280;64571;47.512;19.054;2023-07-31T06:19:50;100221.75;;;21.68;57.21
75891;BME280;64571;47.512;19.054;2023-07-31T06:22:53;100226.75;;;21.75;57.43
75891;BME280;64571;47.512;19.054;2023-07-31T06:25:55;100215.66;;;21.89;56.19
75891;BME280;64571;47.512;19.054;2023-07-31T06:28:58;100217.19;;;22.10;55.64
75891;BME280;64571;47.512;19.054;2023-07-31T06:32:00;100213.41;;;22.25;54.84
75891;BME280;64571;47.512;19.054;2023-07-31T06:35:06;100225.78;;;22.73;54.16
75891;BME280;64571;47.512;19.054;2023-07-31T06:38:08;100207.13;;;22.69;53.82
75891;BME280;64571;47.512;19.054;2023-07-31T06:41:11;100224.03;;;22.62;53.94
75891;BME280;64571;47.512;19.054;2023-07-31T06:44:13;100218.38;;;22.62;53.94
75891;BME280;64571;47.512;19.054;2023-07-31T06:47:16;100221.03;;;22.21;54.78
75891;BME280;64571;47.512;19.054;2023-07-31T06:50:19;100226.87;;;22.09;55.79
75891;BME280;64571;47.512;19.054;2023-07-31T06:53:21;100218.56;;;22.19;55.50
75891;BME280;64571;47.512;19.054;2023-07-31T06:56:24;100220.03;;;22.36;55.75
75891;BME280;64571;47.512;19.054;2023-07-31T06:59:26;100207.22;;;22.16;56.15
75891;BME280;64571;47.512;19.054;2023-07-31T07:02:29;100220.59;;;22.19;56.72
75891;BME280;64571;47.512;19.054;2023-07-31T07:05:31;100237.47;;;22.12;57.42
75891;BME280;64571;47.512;19.054;2023-07-31T07:08:34;100239.91;;;22.13;57.35
75891;BME280;64571;47.512;19.054;2023-07-31T07:11:37;100246.41;;;21.91;58.04
75891;BME280;64571;47.512;19.054;2023-07-31T07:14:39;100243.63;;;21.94;57.75
75891;BME280;64571;47.512;19.054;2023-07-31T07:17:42;100237.84;;;21.87;57.76
75891;BME280;64571;47.512;19.054;2023-07-31T07:20:52;100248.31;;;22.10;57.08
75891;BME280;64571;47.512;19.054;2023-07-31T07:23:55;100245.13;;;22.11;56.78
75891;BME280;64571;47.512;19.054;2023-07-31T07:26:58;100245.25;;;22.18;56.21
75891;BME280;64571;47.512;19.054;2023-07-31T07:30:01;100227.00;;;22.42;54.43
75891;BME280;64571;47.512;19.054;2023-07-31T07:33:03;100237.19;;;22.77;53.72
75891;BME280;64571;47.512;19.054;2023-07-31T07:36:06;100237.25;;;22.81;53.15
75891;BME280;64571;47.512;19.054;2023-07-31T07:39:12;100242.91;;;22.81;53.85
75891;BME280;64571;47.512;19.054;2023-07-31T07:42:15;100246.50;;;23.08;53.48
75891;BME280;64571;47.512;19.054;2023-07-31T07:45:17;100250.56;;;23.44;52.10
75891;BME280;64571;47.512;19.054;2023-07-31T07:48:20;100244.75;;;23.67;50.50
75891;BME280;64571;47.512;19.054;2023-07-31T07:51:22;100245.00;;;23.55;49.86
75891;BME280;64571;47.512;19.054;2023-07-31T07:54:25;100238.59;;;23.24;50.03
75891;BME280;64571;47.512;19.054;2023-07-31T07:57:28;100247.00;;;22.83;50.63
75891;BME280;64571;47.512;19.054;2023-07-31T08:00:30;100237.00;;;22.63;51.77
75891;BME280;64571;47.512;19.054;2023-07-31T08:03:33;100240.87;;;22.51;51.62
75891;BME280;64571;47.512;19.054;2023-07-31T08:06:36;100246.41;;;22.40;51.16
75891;BME280;64571;47.512;19.054;2023-07-31T08:09:39;100240.94;;;22.55;50.25
75891;BME280;64571;47.512;19.054;2023-07-31T08:12:42;100235.06;;;23.00;49.21
75891;BME280;64571;47.512;19.054;2023-07-31T08:15:45;100233.78;;;23.28;47.93
75891;BME280;64571;47.512;19.054;2023-07-31T08:18:47;100237.13;;;23.37;47.77
75891;BME280;64571;47.512;19.054;2023-07-31T08:21:51;100228.97;;;23.73;46.85
75891;BME280;64571;47.512;19.054;2023-07-31T08:24:56;100243.44;;;23.61;46.77
75891;BME280;64571;47.512;19.054;2023-07-31T08:27:58;100232.56;;;23.66;47.00
75891;BME280;64571;47.512;19.054;2023-07-31T08:31:01;100235.50;;;23.77;46.08
75891;BME280;64571;47.512;19.054;2023-07-31T08:34:04;100248.19;;;23.90;45.70
75891;BME280;64571;47.512;19.054;2023-07-31T08:37:06;100240.09;;;23.92;45.43
75891;BME280;64571;47.512;19.054;2023-07-31T08:40:09;100241.03;;;24.07;45.17
75891;BME280;64571;47.512;19.054;2023-07-31T08:43:12;100234.66;;;24.24;44.53
75891;BME280;64571;47.512;19.054;2023-07-31T08:46:15;100231.41;;;24.22;44.33
75891;BME280;64571;47.512;19.054;2023-07-31T08:49:20;100239.56;;;24.31;44.66
75891;BME280;64571;47.512;19.054;2023-07-31T08:52:23;100230.00;;;24.54;44.12
75891;BME280;64571;47.512;19.054;2023-07-31T08:55:27;100229.22;;;24.57;44.11
75891;BME280;64571;47.512;19.054;2023-07-31T08:58:32;100220.63;;;24.46;43.82
75891;BME280;64571;47.512;19.054;2023-07-31T09:01:38;100226.81;;;24.66;43.35
75891;BME280;64571;47.512;19.054;2023-07-31T09:04:43;100219.47;;;24.58;42.72
75891;BME280;64571;47.512;19.054;2023-07-31T09:07:47;100223.50;;;24.53;42.87
75891;BME280;64571;47.512;19.054;2023-07-31T09:10:52;100229.25;;;24.60;42.81
75891;BME280;64571;47.512;19.054;2023-07-31T09:13:56;100227.34;;;24.89;41.99
75891;BME280;64571;47.512;19.054;2023-07-31T09:16:59;100220.06;;;24.95;42.14
75891;BME280;64571;47.512;19.054;2023-07-31T09:20:21;100213.13;;;24.93;41.98
75891;BME280;64571;47.512;19.054;2023-07-31T09:23:24;100210.59;;;24.70;42.07
75891;BME280;64571;47.512;19.054;2023-07-31T09:26:36;100216.41;;;24.98;41.95
75891;BME280;64571;47.512;19.054;2023-07-31T09:29:40;100219.63;;;24.90;42.13
75891;BME280;64571;47.512;19.054;2023-07-31T09:32:44;100212.72;;;24.94;41.71
75891;BME280;64571;47.512;19.054;2023-07-31T09:35:47;100222.09;;;24.98;41.73
75891;BME280;64571;47.512;19.054;2023-07-31T09:38:52;100219.63;;;24.93;42.44
75891;BME280;64571;47.512;19.054;2023-07-31T09:41:55;100220.41;;;24.83;43.09
75891;BME280;64571;47.512;19.054;2023-07-31T09:45:08;100212.31;;;24.89;43.30
75891;BME280;64571;47.512;19.054;2023-07-31T09:48:14;100205.03;;;24.95;43.52
75891;BME280;64571;47.512;19.054;2023-07-31T09:51:26;100199.47;;;25.41;42.45
75891;BME280;64571;47.512;19.054;2023-07-31T09:54:29;100200.28;;;25.38;41.67
75891;BME280;64571;47.512;19.054;2023-07-31T09:57:33;100206.00;;;25.70;41.25
75891;BME280;64571;47.512;19.054;2023-07-31T10:00:36;100198.72;;;25.77;40.85
75891;BME280;64571;47.512;19.054;2023-07-31T10:03:40;100205.59;;;25.65;40.93
75891;BME280;64571;47.512;19.054;2023-07-31T10:06:43;100210.47;;;25.75;41.15
75891;BME280;64571;47.512;19.054;2023-07-31T10:09:48;100205.22;;;25.84;40.88
75891;BME280;64571;47.512;19.054;2023-07-31T10:12:52;100202.78;;;25.93;40.48
75891;BME280;64571;47.512;19.054;2023-07-31T10:15:58;100200.31;;;25.74;40.58
75891;BME280;64571;47.512;19.054;2023-07-31T10:19:02;100189.34;;;25.55;40.61
75891;BME280;64571;47.512;19.054;2023-07-31T10:22:05;100210.06;;;25.51;40.46
75891;BME280;64571;47.512;19.054;2023-07-31T10:25:09;100191.34;;;25.33;40.24
75891;BME280;64571;47.512;19.054;2023-07-31T10:28:12;100200.28;;;25.35;40.36
75891;BME280;64571;47.512;19.054;2023-07-31T10:31:15;100197.50;;;25.95;39.71
75891;BME280;64571;47.512;19.054;2023-07-31T10:34:19;100210.50;;;25.64;40.38
75891;BME280;64571;47.512;19.054;2023-07-31T10:37:26;100211.75;;;25.81;40.01
75891;BME280;64571;47.512;19.054;2023-07-31T10:40:29;100181.62;;;25.73;40.38
75891;BME280;64571;47.512;19.054;2023-07-31T10:43:32;100183.69;;;25.76;40.29
75891;BME280;64571;47.512;19.054;2023-07-31T10:46:36;100184.03;;;25.71;39.88
75891;BME280;64571;47.512;19.054;2023-07-31T10:49:39;100178.34;;;25.53;40.26
75891;BME280;64571;47.512;19.054;2023-07-31T10:52:46;100195.00;;;25.62;40.49
75891;BME280;64571;47.512;19.054;2023-07-31T10:55:49;100180.81;;;26.01;39.83
75891;BME280;64571;47.512;19.054;2023-07-31T10:59:02;100170.19;;;26.26;39.54
75891;BME280;64571;47.512;19.054;2023-07-31T11:02:24;100162.37;;;26.56;39.08
75891;BME280;64571;47.512;19.054;2023-07-31T11:05:42;100165.13;;;26.84;38.40
75891;BME280;64571;47.512;19.054;2023-07-31T11:08:49;100180.03;;;27.17;37.49
75891;BME280;64571;47.512;19.054;2023-07-31T11:11:53;100173.94;;;27.15;37.38
75891;BME280;64571;47.512;19.054;2023-07-31T11:14:56;100171.97;;;26.97;37.42
75891;BME280;64571;47.512;19.054;2023-07-31T11:18:02;100165.81;;;27.10;37.22
75891;BME280;64571;47.512;19.054;2023-07-31T11:21:18;100167.03;;;27.05;37.13
75891;BME280;64571;47.512;19.054;2023-07-31T11:24:22;100148.25;;;27.15;36.76
75891;BME280;64571;47.512;19.054;2023-07-31T11:27:27;100161.72;;;27.11;37.00
75891;BME280;64571;47.512;19.054;2023-07-31T11:30:31;100143.72;;;27.21;36.43
75891;BME280;64571;47.512;19.054;2023-07-31T11:33:33;100142.13;;;27.20;36.28
75891;BME280;64571;47.512;19.054;2023-07-31T11:36:36;100144.84;;;26.61;36.67
75891;BME280;64571;47.512;19.054;2023-07-31T11:39:39;100159.34;;;26.95;36.20
75891;BME280;64571;47.512;19.054;2023-07-31T11:42:42;100146.25;;;27.01;36.39
75891;BME280;64571;47.512;19.054;2023-07-31T11:45:55;100134.03;;;27.00;36.18
75891;BME280;64571;47.512;19.054;2023-07-31T11:48:59;100145.00;;;27.13;36.17
75891;BME280;64571;47.512;19.054;2023-07-31T11:52:02;100144.59;;;27.11;36.06
75891;BME280;64571;47.512;19.054;2023-07-31T11:55:07;100142.22;;;27.58;35.41
75891;BME280;64571;47.512;19.054;2023-07-31T11:58:13;100136.75;;;27.77;35.16
75891;BME280;64571;47.512;19.054;2023-07-31T12:01:19;100134.22;;;27.87;35.04
75891;BME280;64571;47.512;19.054;2023-07-31T12:04:24;100132.75;;;27.68;35.23
75891;BME280;64571;47.512;19.054;2023-07-31T12:07:43;100134.91;;;27.53;35.09
75891;BME280;64571;47.512;19.054;2023-07-31T12:10:45;100131.56;;;27.65;35.03
75891;BME280;64571;47.512;19.054;2023-07-31T12:13:49;100116.00;;;27.21;35.24
75891;BME280;64571;47.512;19.054;2023-07-31T12:17:00;100118.31;;;27.37;35.44
75891;BME280;64571;47.512;19.054;2023-07-31T12:20:04;100121.94;;;27.41;35.88
75891;BME280;64571;47.512;19.054;2023-07-31T12:23:21;100116.91;;;27.60;35.37
75891;BME280;64571;47.512;19.054;2023-07-31T12:26:34;100101.16;;;27.89;34.97
75891;BME280;64571;47.512;19.054;2023-07-31T12:29:38;100104.75;;;28.31;34.58
75891;BME280;64571;47.512;19.054;2023-07-31T12:32:43;100103.31;;;28.16;34.00
75891;BME280;64571;47.512;19.054;2023-07-31T12:35:48;100105.00;;;28.10;34.37
75891;BME280;64571;47.512;19.054;2023-07-31T12:38:51;100101.69;;;27.77;35.17
75891;BME280;64571;47.512;19.054;2023-07-31T12:41:54;100096.78;;;28.15;34.83
75891;BME280;64571;47.512;19.054;2023-07-31T12:44:57;100101.06;;;28.38;34.74
75891;BME280;64571;47.512;19.054;2023-07-31T12:48:01;100093.97;;;28.12;35.07
75891;BME280;64571;47.512;19.054;2023-07-31T12:51:04;100088.47;;;27.90;34.93
75891;BME280;64571;47.512;19.054;2023-07-31T12:54:07;100073.56;;;28.10;35.04
75891;BME280;64571;47.512;19.054;2023-07-31T12:57:10;100075.41;;;28.27;34.78
75891;BME280;64571;47.512;19.054;2023-07-31T13:00:13;100083.78;;;28.45;34.19
75891;BME280;64571;47.512;19.054;2023-07-31T13:03:15;100073.97;;;28.46;33.92
75891;BME280;64571;47.512;19.054;2023-07-31T13:06:18;100075.09;;;28.56;33.39
75891;BME280;64571;47.512;19.054;2023-07-31T13:09:21;100072.72;;;27.79;34.82
75891;BME280;64571;47.512;19.054;2023-07-31T13:12:24;100065.88;;;28.07;34.62
75891;BME280;64571;47.512;19.054;2023-07-31T13:15:26;100064.41;;;28.25;34.40
75891;BME280;64571;47.512;19.054;2023-07-31T13:18:29;100061.34;;;28.43;33.99
75891;BME280;64571;47.512;19.054;2023-07-31T13:21:31;100066.12;;;28.19;34.58
75891;BME280;64571;47.512;19.054;2023-07-31T13:24:34;100060.50;;;28.09;34.45
75891;BME280;64571;47.512;19.054;2023-07-31T13:27:36;100056.00;;;28.11;34.09
75891;BME280;64571;47.512;19.054;2023-07-31T13:30:39;100060.69;;;28.29;34.08
75891;BME280;64571;47.512;19.054;2023-07-31T13:33:42;100061.50;;;28.29;33.92
75891;BME280;64571;47.512;19.054;2023-07-31T13:36:46;100054.66;;;28.54;33.59
75891;BME280;64571;47.512;19.054;2023-07-31T13:39:48;100050.16;;;28.22;34.09
75891;BME280;64571;47.512;19.054;2023-07-31T13:42:51;100044.53;;;28.15;34.41
75891;BME280;64571;47.512;19.054;2023-07-31T13:45:54;100039.66;;;28.12;34.15
75891;BME280;64571;47.512;19.054;2023-07-31T13:48:58;100042.75;;;28.59;34.04
75891;BME280;64571;47.512;19.054;2023-07-31T13:52:02;100045.50;;;27.60;34.81
75891;BME280;64571;47.512;19.054;2023-07-31T13:55:05;100039.84;;;27.97;34.49
75891;BME280;64571;47.512;19.054;2023-07-31T13:58:07;100037.06;;;27.90;34.73
75891;BME280;64571;47.512;19.054;2023-07-31T14:01:10;100035.28;;;28.04;34.55
75891;BME280;64571;47.512;19.054;2023-07-31T14:04:13;100039.19;;;27.83;34.78
75891;BME280;64571;47.512;19.054;2023-07-31T14:07:16;100037.03;;;27.94;34.30
75891;BME280;64571;47.512;19.054;2023-07-31T14:10:20;100033.63;;;27.65;35.61
75891;BME280;64571;47.512;19.054;2023-07-31T14:13:22;100030.84;;;27.58;34.72
75891;BME280;64571;47.512;19.054;2023-07-31T14:16:25;100033.41;;;27.48;35.03
75891;BME280;64571;47.512;19.054;2023-07-31T14:19:28;100025.59;;;27.52;34.80
75891;BME280;64571;47.512;19.054;2023-07-31T14:22:31;100013.59;;;27.72;34.48
75891;BME280;64571;47.512;19.054;2023-07-31T14:25:35;100014.38;;;27.76;34.75
75891;BME280;64571;47.512;19.054;2023-07-31T14:28:38;100018.91;;;27.70;34.70
75891;BME280;64571;47.512;19.054;2023-07-31T14:31:40;100021.81;;;27.63;34.90
75891;BME280;64571;47.512;19.054;2023-07-31T14:34:43;100011.16;;;28.05;34.19
75891;BME280;64571;47.512;19.054;2023-07-31T14:37:45;100012.38;;;28.07;33.94
75891;BME280;64571;47.512;19.054;2023-07-31T14:40:48;100008.59;;;28.14;34.17
75891;BME280;64571;47.512;19.054;2023-07-31T14:43:51;100015.00;;;27.91;34.10
75891;BME280;64571;47.512;19.054;2023-07-31T14:46:54;100014.75;;;28.12;34.07
75891;BME280;64571;47.512;19.054;2023-07-31T14:49:57;100007.59;;;27.97;34.24
75891;BME280;64571;47.512;19.054;2023-07-31T14:53:00;100010.09;;;27.91;34.09
75891;BME280;64571;47.512;19.054;2023-07-31T14:56:03;100000.13;;;28.07;33.60
75891;BME280;64571;47.512;19.054;2023-07-31T14:59:05;100006.63;;;28.11;33.67
75891;BME280;64571;47.512;19.054;2023-07-31T15:02:10;99999.63;;;27.81;34.08
75891;BME280;64571;47.512;19.054;2023-07-31T15:05:12;100000.37;;;27.85;33.93
75891;BME280;64571;47.512;19.054;2023-07-31T15:08:15;99991.47;;;27.80;34.09
75891;BME280;64571;47.512;19.054;2023-07-31T15:11:18;100000.09;;;27.76;34.26
75891;BME280;64571;47.512;19.054;2023-07-31T15:14:20;99995.75;;;27.61;34.19
75891;BME280;64571;47.512;19.054;2023-07-31T15:17:23;99986.47;;;27.87;33.98
75891;BME280;64571;47.512;19.054;2023-07-31T15:20:26;99984.97;;;27.79;33.86
75891;BME280;64571;47.512;19.054;2023-07-31T15:23:29;99983.78;;;27.73;33.84
75891;BME280;64571;47.512;19.054;2023-07-31T15:26:31;99983.31;;;27.78;34.10
75891;BME280;64571;47.512;19.054;2023-07-31T15:29:34;99986.22;;;27.33;34.53
75891;BME280;64571;47.512;19.054;2023-07-31T15:32:39;99981.56;;;27.05;34.94
75891;BME280;64571;47.512;19.054;2023-07-31T15:35:42;99987.28;;;27.09;35.03
75891;BME280;64571;47.512;19.054;2023-07-31T15:38:45;99983.72;;;27.39;34.54
75891;BME280;64571;47.512;19.054;2023-07-31T15:41:48;99973.88;;;27.47;34.26
75891;BME280;64571;47.512;19.054;2023-07-31T15:44:51;99977.28;;;27.31;34.48
75891;BME280;64571;47.512;19.054;2023-07-31T15:47:53;99972.72;;;27.37;34.12
75891;BME280;64571;47.512;19.054;2023-07-31T15:50:56;99963.50;;;27.22;34.19